sensor_id;sensor_type;location;lat;lon;timestamp;temperature;humidity
71801;HTU21D;59647;55.838;37.292;2023-03-31T00:01:30;1.49;87.10
71801;HTU21D;59647;55.838;37.292;2023-03-31T00:03:59;1.46;88.22
71801;HTU21D;59647;55.838;37.292;2023-03-31T00:06:31;1.42;87.77
71801;HTU21D;59647;55.838;37.292;2023-03-31T00:09:10;1.37;87.03
71801;HTU21D;59647;55.838;37.292;2023-03-31T00:11:38;1.31;88.62
71801;HTU21D;59647;55.838;37.292;2023-03-31T00:14:05;1.32;87.27
71801;HTU21D;59647;55.838;37.292;2023-03-31T00:16:35;1.26;88.49
71801;HTU21D;59647;55.838;37.292;2023-03-31T00:19:01;1.23;88.13
71801;HTU21D;59647;55.838;37.292;2023-03-31T00:21:28;1.21;88.48
71801;HTU21D;59647;55.838;37.292;2023-03-31T00:24:02;1.19;88.82
71801;HTU21D;59647;55.838;37.292;2023-03-31T00:26:29;1.16;89.28
71801;HTU21D;59647;55.838;37.292;2023-03-31T00:28:56;1.22;85.69
71801;HTU21D;59647;55.838;37.292;2023-03-31T00:31:22;1.11;86.93
71801;HTU21D;59647;55.838;37.292;2023-03-31T00:33:49;1.08;86.85
71801;HTU21D;59647;55.838;37.292;2023-03-31T00:36:16;1.06;85.97
71801;HTU21D;59647;55.838;37.292;2023-03-31T00:38:48;0.98;87.50
71801;HTU21D;59647;55.838;37.292;2023-03-31T00:41:16;0.95;88.06
71801;HTU21D;59647;55.838;37.292;2023-03-31T00:46:56;0.90;88.35
71801;HTU21D;59647;55.838;37.292;2023-03-31T00:49:30;0.88;87.57
71801;HTU21D;59647;55.838;37.292;2023-03-31T00:52:08;0.86;87.79
71801;HTU21D;59647;55.838;37.292;2023-03-31T00:54:38;0.86;88.56
71801;HTU21D;59647;55.838;37.292;2023-03-31T00:57:06;0.89;86.79
71801;HTU21D;59647;55.838;37.292;2023-03-31T00:59:37;0.83;86.79
71801;HTU21D;59647;55.838;37.292;2023-03-31T01:02:04;0.80;86.96
71801;HTU21D;59647;55.838;37.292;2023-03-31T01:04:35;0.76;87.09
71801;HTU21D;59647;55.838;37.292;2023-03-31T01:07:08;0.67;88.67
71801;HTU21D;59647;55.838;37.292;2023-03-31T01:09:37;0.68;87.69
71801;HTU21D;59647;55.838;37.292;2023-03-31T01:12:06;0.67;88.85
71801;HTU21D;59647;55.838;37.292;2023-03-31T01:14:33;0.68;87.57
71801;HTU21D;59647;55.838;37.292;2023-03-31T01:17:00;0.57;92.05
71801;HTU21D;59647;55.838;37.292;2023-03-31T01:19:53;0.58;89.29
71801;HTU21D;59647;55.838;37.292;2023-03-31T01:46:36;0.00;89.83
71801;HTU21D;59647;55.838;37.292;2023-03-31T01:49:23;0.30;90.99
71801;HTU21D;59647;55.838;37.292;2023-03-31T01:52:09;0.27;89.69
71801;HTU21D;59647;55.838;37.292;2023-03-31T01:54:38;0.24;89.99
71801;HTU21D;59647;55.838;37.292;2023-03-31T01:57:22;0.15;94.75
71801;HTU21D;59647;55.838;37.292;2023-03-31T02:03:13;0.19;89.43
71801;HTU21D;59647;55.838;37.292;2023-03-31T02:05:38;0.19;88.67
71801;HTU21D;59647;55.838;37.292;2023-03-31T02:08:40;0.18;88.78
71801;HTU21D;59647;55.838;37.292;2023-03-31T02:11:07;0.14;90.35
71801;HTU21D;59647;55.838;37.292;2023-03-31T02:13:33;0.14;88.80
71801;HTU21D;59647;55.838;37.292;2023-03-31T02:16:03;0.05;92.57
71801;HTU21D;59647;55.838;37.292;2023-03-31T02:18:32;0.08;89.59
71801;HTU21D;59647;55.838;37.292;2023-03-31T02:21:04;0.03;89.94
71801;HTU21D;59647;55.838;37.292;2023-03-31T02:23:32;0.08;88.57
71801;HTU21D;59647;55.838;37.292;2023-03-31T02:26:14;0.01;90.79
71801;HTU21D;59647;55.838;37.292;2023-03-31T02:28:41;0.02;89.07
71801;HTU21D;59647;55.838;37.292;2023-03-31T02:33:58;-0.02;89.37
71801;HTU21D;59647;55.838;37.292;2023-03-31T02:36:24;-0.03;89.33
71801;HTU21D;59647;55.838;37.292;2023-03-31T02:39:03;-0.10;92.59
71801;HTU21D;59647;55.838;37.292;2023-03-31T02:41:30;-0.12;91.56
71801;HTU21D;59647;55.838;37.292;2023-03-31T02:43:56;-0.10;89.60
71801;HTU21D;59647;55.838;37.292;2023-03-31T02:46:23;-0.11;89.71
71801;HTU21D;59647;55.838;37.292;2023-03-31T02:48:54;-0.14;91.65
71801;HTU21D;59647;55.838;37.292;2023-03-31T02:54:47;-0.16;90.72
71801;HTU21D;59647;55.838;37.292;2023-03-31T03:12:00;-0.23;90.28
71801;HTU21D;59647;55.838;37.292;2023-03-31T03:17:13;-0.22;90.41
71801;HTU21D;59647;55.838;37.292;2023-03-31T03:19:41;-0.28;93.02
71801;HTU21D;59647;55.838;37.292;2023-03-31T03:22:08;-0.27;90.62
71801;HTU21D;59647;55.838;37.292;2023-03-31T03:24:34;-0.29;91.03
71801;HTU21D;59647;55.838;37.292;2023-03-31T03:27:00;-0.29;91.72
71801;HTU21D;59647;55.838;37.292;2023-03-31T03:29:27;-0.31;91.85
71801;HTU21D;59647;55.838;37.292;2023-03-31T03:31:53;-0.31;92.01
71801;HTU21D;59647;55.838;37.292;2023-03-31T03:34:18;-0.36;93.37
71801;HTU21D;59647;55.838;37.292;2023-03-31T03:36:45;-0.29;91.47
71801;HTU21D;59647;55.838;37.292;2023-03-31T03:39:11;-0.32;91.72
71801;HTU21D;59647;55.838;37.292;2023-03-31T03:41:37;-0.31;90.96
71801;HTU21D;59647;55.838;37.292;2023-03-31T03:44:03;-0.29;90.47
71801;HTU21D;59647;55.838;37.292;2023-03-31T03:46:29;-0.34;91.24
71801;HTU21D;59647;55.838;37.292;2023-03-31T03:48:55;-0.34;92.08
71801;HTU21D;59647;55.838;37.292;2023-03-31T03:51:22;-0.36;94.42
71801;HTU21D;59647;55.838;37.292;2023-03-31T03:53:48;-0.31;90.63
71801;HTU21D;59647;55.838;37.292;2023-03-31T03:56:13;-0.36;93.41
71801;HTU21D;59647;55.838;37.292;2023-03-31T03:58:39;-0.36;94.23
71801;HTU21D;59647;55.838;37.292;2023-03-31T04:01:05;-0.28;90.55
71801;HTU21D;59647;55.838;37.292;2023-03-31T04:03:31;-0.34;91.19
71801;HTU21D;59647;55.838;37.292;2023-03-31T04:05:57;-0.32;91.18
71801;HTU21D;59647;55.838;37.292;2023-03-31T04:08:23;-0.31;91.80
71801;HTU21D;59647;55.838;37.292;2023-03-31T04:10:49;-0.35;92.12
71801;HTU21D;59647;55.838;37.292;2023-03-31T04:13:16;-0.36;92.08
71801;HTU21D;59647;55.838;37.292;2023-03-31T04:15:42;-0.34;92.37
71801;HTU21D;59647;55.838;37.292;2023-03-31T04:18:08;-0.31;91.91
71801;HTU21D;59647;55.838;37.292;2023-03-31T04:20:51;-0.30;91.85
71801;HTU21D;59647;55.838;37.292;2023-03-31T04:23:31;-0.26;90.95
71801;HTU21D;59647;55.838;37.292;2023-03-31T04:25:57;-0.36;93.61
71801;HTU21D;59647;55.838;37.292;2023-03-31T04:28:23;-0.31;92.24
71801;HTU21D;59647;55.838;37.292;2023-03-31T04:30:54;-0.29;92.49
71801;HTU21D;59647;55.838;37.292;2023-03-31T04:33:23;-0.24;91.95
71801;HTU21D;59647;55.838;37.292;2023-03-31T04:35:49;-0.17;92.12
71801;HTU21D;59647;55.838;37.292;2023-03-31T04:38:16;-0.12;91.69
71801;HTU21D;59647;55.838;37.292;2023-03-31T04:40:45;-0.03;91.47
71801;HTU21D;59647;55.838;37.292;2023-03-31T04:43:11;-0.00;91.61
71801;HTU21D;59647;55.838;37.292;2023-03-31T04:45:36;0.04;91.53
71801;HTU21D;59647;55.838;37.292;2023-03-31T04:48:02;0.04;91.49
71801;HTU21D;59647;55.838;37.292;2023-03-31T04:50:28;0.05;91.62
71801;HTU21D;59647;55.838;37.292;2023-03-31T04:52:54;0.06;91.18
71801;HTU21D;59647;55.838;37.292;2023-03-31T04:55:20;0.02;91.77
71801;HTU21D;59647;55.838;37.292;2023-03-31T04:57:46;0.07;91.86
71801;HTU21D;59647;55.838;37.292;2023-03-31T05:00:12;0.13;92.13
71801;HTU21D;59647;55.838;37.292;2023-03-31T05:02:38;0.22;91.47
71801;HTU21D;59647;55.838;37.292;2023-03-31T05:05:04;0.20;91.83
71801;HTU21D;59647;55.838;37.292;2023-03-31T05:07:31;0.16;91.95
71801;HTU21D;59647;55.838;37.292;2023-03-31T05:09:56;0.12;92.39
71801;HTU21D;59647;55.838;37.292;2023-03-31T05:12:22;0.16;91.33
71801;HTU21D;59647;55.838;37.292;2023-03-31T05:14:48;0.08;92.29
71801;HTU21D;59647;55.838;37.292;2023-03-31T05:17:14;0.09;91.60
71801;HTU21D;59647;55.838;37.292;2023-03-31T05:19:42;0.08;92.43
71801;HTU21D;59647;55.838;37.292;2023-03-31T05:22:08;0.18;91.16
71801;HTU21D;59647;55.838;37.292;2023-03-31T05:24:35;0.16;91.73
71801;HTU21D;59647;55.838;37.292;2023-03-31T05:27:01;0.24;91.13
71801;HTU21D;59647;55.838;37.292;2023-03-31T05:29:27;0.34;91.34
71801;HTU21D;59647;55.838;37.292;2023-03-31T05:31:52;0.39;91.35
71801;HTU21D;59647;55.838;37.292;2023-03-31T05:34:19;0.47;91.35
71801;HTU21D;59647;55.838;37.292;2023-03-31T05:36:45;0.55;91.40
71801;HTU21D;59647;55.838;37.292;2023-03-31T05:39:15;0.72;91.22
71801;HTU21D;59647;55.838;37.292;2023-03-31T05:41:40;0.77;90.88
71801;HTU21D;59647;55.838;37.292;2023-03-31T05:44:06;0.88;90.73
71801;HTU21D;59647;55.838;37.292;2023-03-31T05:46:32;0.96;90.11
71801;HTU21D;59647;55.838;37.292;2023-03-31T05:48:58;0.98;89.73
71801;HTU21D;59647;55.838;37.292;2023-03-31T05:51:24;0.97;90.00
71801;HTU21D;59647;55.838;37.292;2023-03-31T05:53:50;1.07;90.53
71801;HTU21D;59647;55.838;37.292;2023-03-31T05:56:16;1.28;90.18
71801;HTU21D;59647;55.838;37.292;2023-03-31T05:58:42;1.33;89.24
71801;HTU21D;59647;55.838;37.292;2023-03-31T06:01:10;1.28;89.50
71801;HTU21D;59647;55.838;37.292;2023-03-31T06:03:40;1.41;89.58
71801;HTU21D;59647;55.838;37.292;2023-03-31T06:06:07;1.28;88.11
71801;HTU21D;59647;55.838;37.292;2023-03-31T06:08:34;1.25;88.98
71801;HTU21D;59647;55.838;37.292;2023-03-31T06:11:04;1.35;88.97
71801;HTU21D;59647;55.838;37.292;2023-03-31T06:13:30;1.37;88.86
71801;HTU21D;59647;55.838;37.292;2023-03-31T06:15:58;1.43;88.57
71801;HTU21D;59647;55.838;37.292;2023-03-31T06:18:27;1.58;88.73
71801;HTU21D;59647;55.838;37.292;2023-03-31T06:20:55;1.68;88.30
71801;HTU21D;59647;55.838;37.292;2023-03-31T06:23:22;1.80;88.25
71801;HTU21D;59647;55.838;37.292;2023-03-31T06:25:49;1.84;87.70
71801;HTU21D;59647;55.838;37.292;2023-03-31T06:28:15;1.86;86.27
71801;HTU21D;59647;55.838;37.292;2023-03-31T06:30:41;1.98;87.60
71801;HTU21D;59647;55.838;37.292;2023-03-31T06:33:07;2.02;87.30
71801;HTU21D;59647;55.838;37.292;2023-03-31T06:35:36;2.05;87.24
71801;HTU21D;59647;55.838;37.292;2023-03-31T06:38:02;2.17;87.68
71801;HTU21D;59647;55.838;37.292;2023-03-31T06:40:28;2.09;86.90
71801;HTU21D;59647;55.838;37.292;2023-03-31T06:42:54;2.06;86.40
71801;HTU21D;59647;55.838;37.292;2023-03-31T06:45:21;2.19;86.68
71801;HTU21D;59647;55.838;37.292;2023-03-31T06:47:47;2.29;86.67
71801;HTU21D;59647;55.838;37.292;2023-03-31T06:50:13;2.38;86.77
71801;HTU21D;59647;55.838;37.292;2023-03-31T06:52:39;2.54;86.28
71801;HTU21D;59647;55.838;37.292;2023-03-31T06:55:08;2.46;85.89
71801;HTU21D;59647;55.838;37.292;2023-03-31T06:57:34;2.57;86.14
71801;HTU21D;59647;55.838;37.292;2023-03-31T07:00:02;2.64;85.32
71801;HTU21D;59647;55.838;37.292;2023-03-31T07:02:29;2.85;85.09
71801;HTU21D;59647;55.838;37.292;2023-03-31T07:04:55;3.08;84.44
71801;HTU21D;59647;55.838;37.292;2023-03-31T07:07:22;3.26;83.53
71801;HTU21D;59647;55.838;37.292;2023-03-31T07:09:48;3.34;81.82
71801;HTU21D;59647;55.838;37.292;2023-03-31T07:12:16;3.40;84.80
71801;HTU21D;59647;55.838;37.292;2023-03-31T07:14:42;3.31;81.43
71801;HTU21D;59647;55.838;37.292;2023-03-31T07:17:08;3.61;85.12
71801;HTU21D;59647;55.838;37.292;2023-03-31T07:19:37;3.73;81.73
71801;HTU21D;59647;55.838;37.292;2023-03-31T07:22:07;3.93;83.84
71801;HTU21D;59647;55.838;37.292;2023-03-31T07:24:34;3.88;80.04
71801;HTU21D;59647;55.838;37.292;2023-03-31T07:27:00;3.94;81.97
71801;HTU21D;59647;55.838;37.292;2023-03-31T07:29:26;4.02;82.89
71801;HTU21D;59647;55.838;37.292;2023-03-31T07:31:51;4.01;76.28
71801;HTU21D;59647;55.838;37.292;2023-03-31T07:34:17;4.03;82.33
71801;HTU21D;59647;55.838;37.292;2023-03-31T07:36:43;3.88;81.42
71801;HTU21D;59647;55.838;37.292;2023-03-31T07:39:09;3.88;81.31
71801;HTU21D;59647;55.838;37.292;2023-03-31T07:41:35;3.97;81.43
71801;HTU21D;59647;55.838;37.292;2023-03-31T07:44:02;4.06;81.47
71801;HTU21D;59647;55.838;37.292;2023-03-31T07:46:28;4.18;79.62
71801;HTU21D;59647;55.838;37.292;2023-03-31T07:48:55;4.30;79.44
71801;HTU21D;59647;55.838;37.292;2023-03-31T07:51:24;4.22;79.82
71801;HTU21D;59647;55.838;37.292;2023-03-31T07:53:51;4.20;79.56
71801;HTU21D;59647;55.838;37.292;2023-03-31T07:56:21;4.20;79.89
71801;HTU21D;59647;55.838;37.292;2023-03-31T07:58:50;4.24;79.10
71801;HTU21D;59647;55.838;37.292;2023-03-31T08:01:19;4.22;78.39
71801;HTU21D;59647;55.838;37.292;2023-03-31T08:03:46;4.23;80.40
71801;HTU21D;59647;55.838;37.292;2023-03-31T08:06:23;4.26;80.32
71801;HTU21D;59647;55.838;37.292;2023-03-31T08:08:49;4.27;79.82
71801;HTU21D;59647;55.838;37.292;2023-03-31T08:11:16;4.32;80.75
71801;HTU21D;59647;55.838;37.292;2023-03-31T08:13:42;4.38;80.62
71801;HTU21D;59647;55.838;37.292;2023-03-31T08:16:08;4.43;80.99
71801;HTU21D;59647;55.838;37.292;2023-03-31T08:18:34;4.44;80.72
71801;HTU21D;59647;55.838;37.292;2023-03-31T08:21:00;4.46;80.56
71801;HTU21D;59647;55.838;37.292;2023-03-31T08:23:26;4.53;80.69
71801;HTU21D;59647;55.838;37.292;2023-03-31T08:25:52;4.59;79.17
71801;HTU21D;59647;55.838;37.292;2023-03-31T08:28:17;4.63;79.86
71801;HTU21D;59647;55.838;37.292;2023-03-31T08:30:43;4.65;78.65
71801;HTU21D;59647;55.838;37.292;2023-03-31T08:33:09;4.67;78.46
71801;HTU21D;59647;55.838;37.292;2023-03-31T08:35:38;4.65;78.72
71801;HTU21D;59647;55.838;37.292;2023-03-31T08:38:03;4.58;79.04
71801;HTU21D;59647;55.838;37.292;2023-03-31T08:40:31;4.64;78.28
71801;HTU21D;59647;55.838;37.292;2023-03-31T08:43:03;4.78;78.55
71801;HTU21D;59647;55.838;37.292;2023-03-31T08:45:31;4.98;78.07
71801;HTU21D;59647;55.838;37.292;2023-03-31T08:50:44;5.07;77.04
71801;HTU21D;59647;55.838;37.292;2023-03-31T08:53:36;5.30;75.21
71801;HTU21D;59647;55.838;37.292;2023-03-31T08:56:07;5.57;78.39
71801;HTU21D;59647;55.838;37.292;2023-03-31T08:58:41;5.60;77.11
71801;HTU21D;59647;55.838;37.292;2023-03-31T09:07:24;5.91;77.11
71801;HTU21D;59647;55.838;37.292;2023-03-31T09:12:48;5.62;74.99
71801;HTU21D;59647;55.838;37.292;2023-03-31T09:15:35;5.62;75.58
71801;HTU21D;59647;55.838;37.292;2023-03-31T09:20:52;5.81;78.07
71801;HTU21D;59647;55.838;37.292;2023-03-31T09:23:35;5.75;75.57
71801;HTU21D;59647;55.838;37.292;2023-03-31T09:26:03;5.86;78.05
71801;HTU21D;59647;55.838;37.292;2023-03-31T09:28:33;5.82;74.22
71801;HTU21D;59647;55.838;37.292;2023-03-31T09:31:07;5.74;71.27
71801;HTU21D;59647;55.838;37.292;2023-03-31T09:33:34;5.76;76.89
71801;HTU21D;59647;55.838;37.292;2023-03-31T09:36:11;5.85;72.23
71801;HTU21D;59647;55.838;37.292;2023-03-31T09:38:39;6.06;75.56
71801;HTU21D;59647;55.838;37.292;2023-03-31T09:41:07;5.83;71.61
71801;HTU21D;59647;55.838;37.292;2023-03-31T09:43:34;5.76;73.67
71801;HTU21D;59647;55.838;37.292;2023-03-31T09:46:01;5.83;76.20
71801;HTU21D;59647;55.838;37.292;2023-03-31T09:48:30;5.77;75.62
71801;HTU21D;59647;55.838;37.292;2023-03-31T09:51:04;5.67;73.77
71801;HTU21D;59647;55.838;37.292;2023-03-31T09:56:02;5.72;74.91
71801;HTU21D;59647;55.838;37.292;2023-03-31T09:58:29;5.80;75.38
71801;HTU21D;59647;55.838;37.292;2023-03-31T10:01:02;5.95;76.73
71801;HTU21D;59647;55.838;37.292;2023-03-31T10:03:29;5.97;75.70
71801;HTU21D;59647;55.838;37.292;2023-03-31T10:06:08;5.91;75.09
71801;HTU21D;59647;55.838;37.292;2023-03-31T10:08:56;5.97;73.86
71801;HTU21D;59647;55.838;37.292;2023-03-31T10:11:24;6.01;75.60
71801;HTU21D;59647;55.838;37.292;2023-03-31T10:19:21;5.84;72.88
71801;HTU21D;59647;55.838;37.292;2023-03-31T10:21:54;5.85;74.57
71801;HTU21D;59647;55.838;37.292;2023-03-31T10:24:20;5.93;74.89
71801;HTU21D;59647;55.838;37.292;2023-03-31T10:26:51;5.85;72.50
71801;HTU21D;59647;55.838;37.292;2023-03-31T10:29:37;5.74;72.13
71801;HTU21D;59647;55.838;37.292;2023-03-31T10:32:26;5.75;73.73
71801;HTU21D;59647;55.838;37.292;2023-03-31T10:34:58;5.74;73.72
71801;HTU21D;59647;55.838;37.292;2023-03-31T10:37:29;5.79;75.21
71801;HTU21D;59647;55.838;37.292;2023-03-31T10:40:21;5.81;74.39
71801;HTU21D;59647;55.838;37.292;2023-03-31T10:43:00;5.79;74.15
71801;HTU21D;59647;55.838;37.292;2023-03-31T10:45:35;5.80;73.96
71801;HTU21D;59647;55.838;37.292;2023-03-31T10:48:02;5.86;75.10
71801;HTU21D;59647;55.838;37.292;2023-03-31T10:50:31;5.90;74.81
71801;HTU21D;59647;55.838;37.292;2023-03-31T10:53:12;5.85;73.80
71801;HTU21D;59647;55.838;37.292;2023-03-31T10:56:06;5.92;75.07
71801;HTU21D;59647;55.838;37.292;2023-03-31T11:09:43;6.08;74.65
71801;HTU21D;59647;55.838;37.292;2023-03-31T11:14:58;6.08;73.83
71801;HTU21D;59647;55.838;37.292;2023-03-31T11:25:21;6.06;73.25
71801;HTU21D;59647;55.838;37.292;2023-03-31T11:38:37;6.15;73.43
71801;HTU21D;59647;55.838;37.292;2023-03-31T11:41:21;6.19;74.39
71801;HTU21D;59647;55.838;37.292;2023-03-31T11:43:52;6.16;74.51
71801;HTU21D;59647;55.838;37.292;2023-03-31T11:46:26;6.17;74.79
71801;HTU21D;59647;55.838;37.292;2023-03-31T11:48:59;6.16;74.05
71801;HTU21D;59647;55.838;37.292;2023-03-31T11:51:37;6.14;74.12
71801;HTU21D;59647;55.838;37.292;2023-03-31T11:54:04;6.12;74.54
71801;HTU21D;59647;55.838;37.292;2023-03-31T11:56:38;6.14;74.31
71801;HTU21D;59647;55.838;37.292;2023-03-31T11:59:06;6.11;74.36
71801;HTU21D;59647;55.838;37.292;2023-03-31T12:01:47;6.16;74.81
71801;HTU21D;59647;55.838;37.292;2023-03-31T12:07:22;6.29;74.35
71801;HTU21D;59647;55.838;37.292;2023-03-31T12:10:28;6.26;73.72
71801;HTU21D;59647;55.838;37.292;2023-03-31T12:15:57;6.34;74.60
71801;HTU21D;59647;55.838;37.292;2023-03-31T12:18:30;6.28;73.61
71801;HTU21D;59647;55.838;37.292;2023-03-31T12:21:02;6.33;74.79
71801;HTU21D;59647;55.838;37.292;2023-03-31T12:23:31;6.38;74.30
71801;HTU21D;59647;55.838;37.292;2023-03-31T12:28:25;6.48;74.46
71801;HTU21D;59647;55.838;37.292;2023-03-31T12:30:53;6.51;74.53
71801;HTU21D;59647;55.838;37.292;2023-03-31T12:33:39;6.45;73.85
71801;HTU21D;59647;55.838;37.292;2023-03-31T12:52:49;6.50;74.00
71801;HTU21D;59647;55.838;37.292;2023-03-31T12:57:46;6.48;73.48
71801;HTU21D;59647;55.838;37.292;2023-03-31T13:02:46;6.49;73.74
71801;HTU21D;59647;55.838;37.292;2023-03-31T13:07:59;6.54;74.06
71801;HTU21D;59647;55.838;37.292;2023-03-31T13:10:27;6.57;71.67
71801;HTU21D;59647;55.838;37.292;2023-03-31T13:13:11;6.49;71.70
71801;HTU21D;59647;55.838;37.292;2023-03-31T13:15:39;6.51;72.48
71801;HTU21D;59647;55.838;37.292;2023-03-31T13:18:06;6.57;73.66
71801;HTU21D;59647;55.838;37.292;2023-03-31T13:20:37;6.57;73.38
71801;HTU21D;59647;55.838;37.292;2023-03-31T13:25:44;6.57;73.29
71801;HTU21D;59647;55.838;37.292;2023-03-31T13:28:24;6.57;72.64
71801;HTU21D;59647;55.838;37.292;2023-03-31T13:30:57;6.55;72.51
71801;HTU21D;59647;55.838;37.292;2023-03-31T13:33:44;6.55;72.48
71801;HTU21D;59647;55.838;37.292;2023-03-31T13:39:05;6.52;72.69
71801;HTU21D;59647;55.838;37.292;2023-03-31T13:41:44;6.54;72.42
71801;HTU21D;59647;55.838;37.292;2023-03-31T13:50:23;6.61;73.83
71801;HTU21D;59647;55.838;37.292;2023-03-31T14:03:03;6.54;73.41
71801;HTU21D;59647;55.838;37.292;2023-03-31T14:07:37;6.42;73.79
71801;HTU21D;59647;55.838;37.292;2023-03-31T14:10:05;6.30;73.90
71801;HTU21D;59647;55.838;37.292;2023-03-31T14:12:45;6.35;74.33
71801;HTU21D;59647;55.838;37.292;2023-03-31T14:15:18;6.23;72.45
71801;HTU21D;59647;55.838;37.292;2023-03-31T14:17:44;6.24;73.83
71801;HTU21D;59647;55.838;37.292;2023-03-31T14:26:02;6.13;74.33
71801;HTU21D;59647;55.838;37.292;2023-03-31T14:37:05;6.13;75.47
71801;HTU21D;59647;55.838;37.292;2023-03-31T14:39:37;6.08;75.98
71801;HTU21D;59647;55.838;37.292;2023-03-31T14:42:12;6.07;75.74
71801;HTU21D;59647;55.838;37.292;2023-03-31T14:44:40;6.08;75.50
71801;HTU21D;59647;55.838;37.292;2023-03-31T14:47:15;6.06;75.41
71801;HTU21D;59647;55.838;37.292;2023-03-31T14:49:45;6.04;75.59
71801;HTU21D;59647;55.838;37.292;2023-03-31T14:52:17;5.91;76.10
71801;HTU21D;59647;55.838;37.292;2023-03-31T14:54:44;5.82;77.28
71801;HTU21D;59647;55.838;37.292;2023-03-31T14:57:35;5.83;77.01
71801;HTU21D;59647;55.838;37.292;2023-03-31T15:00:07;5.82;76.53
71801;HTU21D;59647;55.838;37.292;2023-03-31T15:02:36;5.75;78.01
71801;HTU21D;59647;55.838;37.292;2023-03-31T15:05:07;5.76;76.88
71801;HTU21D;59647;55.838;37.292;2023-03-31T15:07:40;5.71;77.89
71801;HTU21D;59647;55.838;37.292;2023-03-31T15:10:06;5.69;77.58
71801;HTU21D;59647;55.838;37.292;2023-03-31T15:12:33;5.67;78.07
71801;HTU21D;59647;55.838;37.292;2023-03-31T15:15:03;5.65;77.72
71801;HTU21D;59647;55.838;37.292;2023-03-31T15:17:36;5.57;78.30
71801;HTU21D;59647;55.838;37.292;2023-03-31T15:20:41;5.54;78.67
71801;HTU21D;59647;55.838;37.292;2023-03-31T15:23:28;5.46;81.05
71801;HTU21D;59647;55.838;37.292;2023-03-31T15:26:05;5.45;78.87
71801;HTU21D;59647;55.838;37.292;2023-03-31T15:28:39;5.42;78.53
71801;HTU21D;59647;55.838;37.292;2023-03-31T15:31:07;5.40;78.88
71801;HTU21D;59647;55.838;37.292;2023-03-31T15:33:34;5.40;78.82
71801;HTU21D;59647;55.838;37.292;2023-03-31T15:36:07;5.26;82.96
71801;HTU21D;59647;55.838;37.292;2023-03-31T15:38:33;5.28;80.18
71801;HTU21D;59647;55.838;37.292;2023-03-31T15:40:59;5.30;81.67
71801;HTU21D;59647;55.838;37.292;2023-03-31T15:43:44;5.37;79.27
71801;HTU21D;59647;55.838;37.292;2023-03-31T15:49:04;5.25;80.69
71801;HTU21D;59647;55.838;37.292;2023-03-31T15:51:45;5.22;80.32
71801;HTU21D;59647;55.838;37.292;2023-03-31T15:54:35;5.23;80.40
71801;HTU21D;59647;55.838;37.292;2023-03-31T15:57:03;5.13;84.44
71801;HTU21D;59647;55.838;37.292;2023-03-31T15:59:44;5.10;81.96
71801;HTU21D;59647;55.838;37.292;2023-03-31T16:02:20;5.10;81.81
71801;HTU21D;59647;55.838;37.292;2023-03-31T16:04:49;5.09;80.97
71801;HTU21D;59647;55.838;37.292;2023-03-31T16:07:23;5.07;81.56
71801;HTU21D;59647;55.838;37.292;2023-03-31T16:12:26;5.01;84.36
71801;HTU21D;59647;55.838;37.292;2023-03-31T16:17:51;4.96;86.71
71801;HTU21D;59647;55.838;37.292;2023-03-31T16:20:26;4.96;84.00
71801;HTU21D;59647;55.838;37.292;2023-03-31T16:22:55;4.95;85.42
71801;HTU21D;59647;55.838;37.292;2023-03-31T16:25:24;4.95;84.90
71801;HTU21D;59647;55.838;37.292;2023-03-31T16:27:59;4.96;83.33
71801;HTU21D;59647;55.838;37.292;2023-03-31T16:30:39;4.93;87.48
71801;HTU21D;59647;55.838;37.292;2023-03-31T16:33:10;4.88;85.42
71801;HTU21D;59647;55.838;37.292;2023-03-31T16:35:42;4.86;85.43
71801;HTU21D;59647;55.838;37.292;2023-03-31T16:38:10;4.81;84.66
71801;HTU21D;59647;55.838;37.292;2023-03-31T16:40:40;4.81;85.84
71801;HTU21D;59647;55.838;37.292;2023-03-31T16:43:16;4.78;87.99
71801;HTU21D;59647;55.838;37.292;2023-03-31T16:45:46;4.73;91.72
71801;HTU21D;59647;55.838;37.292;2023-03-31T16:48:16;4.76;86.90
71801;HTU21D;59647;55.838;37.292;2023-03-31T16:50:45;4.77;90.41
71801;HTU21D;59647;55.838;37.292;2023-03-31T16:53:17;4.77;86.29
71801;HTU21D;59647;55.838;37.292;2023-03-31T16:55:43;4.74;89.57
71801;HTU21D;59647;55.838;37.292;2023-03-31T16:58:09;4.74;89.32
71801;HTU21D;59647;55.838;37.292;2023-03-31T17:00:36;4.72;86.03
71801;HTU21D;59647;55.838;37.292;2023-03-31T17:03:05;4.72;86.06
71801;HTU21D;59647;55.838;37.292;2023-03-31T17:05:32;4.71;86.83
71801;HTU21D;59647;55.838;37.292;2023-03-31T17:08:02;4.66;87.93
71801;HTU21D;59647;55.838;37.292;2023-03-31T17:10:28;4.67;86.54
71801;HTU21D;59647;55.838;37.292;2023-03-31T17:12:53;4.66;86.09
71801;HTU21D;59647;55.838;37.292;2023-03-31T17:15:19;4.68;85.82
71801;HTU21D;59647;55.838;37.292;2023-03-31T17:17:46;4.61;90.47
71801;HTU21D;59647;55.838;37.292;2023-03-31T17:20:12;4.61;85.91
71801;HTU21D;59647;55.838;37.292;2023-03-31T17:22:38;4.52;88.37
71801;HTU21D;59647;55.838;37.292;2023-03-31T17:25:04;4.46;93.08
71801;HTU21D;59647;55.838;37.292;2023-03-31T17:27:30;4.43;87.16
71801;HTU21D;59647;55.838;37.292;2023-03-31T17:29:56;4.41;88.34
71801;HTU21D;59647;55.838;37.292;2023-03-31T17:32:22;4.41;87.57
71801;HTU21D;59647;55.838;37.292;2023-03-31T17:34:48;4.38;87.71
71801;HTU21D;59647;55.838;37.292;2023-03-31T17:37:16;4.37;88.97
71801;HTU21D;59647;55.838;37.292;2023-03-31T17:39:43;4.35;91.37
71801;HTU21D;59647;55.838;37.292;2023-03-31T17:42:12;4.32;92.54
71801;HTU21D;59647;55.838;37.292;2023-03-31T17:44:39;4.28;93.31
71801;HTU21D;59647;55.838;37.292;2023-03-31T17:47:05;4.27;89.58
71801;HTU21D;59647;55.838;37.292;2023-03-31T17:49:31;4.24;89.43
71801;HTU21D;59647;55.838;37.292;2023-03-31T17:51:58;4.20;94.67
71801;HTU21D;59647;55.838;37.292;2023-03-31T17:54:25;4.19;90.89
71801;HTU21D;59647;55.838;37.292;2023-03-31T17:56:51;4.18;89.89
71801;HTU21D;59647;55.838;37.292;2023-03-31T17:59:18;4.18;90.24
71801;HTU21D;59647;55.838;37.292;2023-03-31T18:01:44;4.16;90.44
71801;HTU21D;59647;55.838;37.292;2023-03-31T18:04:12;4.15;90.66
71801;HTU21D;59647;55.838;37.292;2023-03-31T18:06:38;4.17;94.61
71801;HTU21D;59647;55.838;37.292;2023-03-31T18:09:04;4.18;94.14
71801;HTU21D;59647;55.838;37.292;2023-03-31T18:11:30;4.20;91.02
71801;HTU21D;59647;55.838;37.292;2023-03-31T18:13:57;4.19;92.05
71801;HTU21D;59647;55.838;37.292;2023-03-31T18:16:26;4.21;89.99
71801;HTU21D;59647;55.838;37.292;2023-03-31T18:18:52;4.21;91.09
71801;HTU21D;59647;55.838;37.292;2023-03-31T18:21:18;4.21;91.59
71801;HTU21D;59647;55.838;37.292;2023-03-31T18:23:44;4.19;91.68
71801;HTU21D;59647;55.838;37.292;2023-03-31T18:26:11;4.19;90.50
71801;HTU21D;59647;55.838;37.292;2023-03-31T18:28:38;4.18;94.76
71801;HTU21D;59647;55.838;37.292;2023-03-31T18:31:06;4.22;89.90
71801;HTU21D;59647;55.838;37.292;2023-03-31T18:33:33;4.17;92.26
71801;HTU21D;59647;55.838;37.292;2023-03-31T18:36:00;4.17;93.02
71801;HTU21D;59647;55.838;37.292;2023-03-31T18:38:26;4.14;93.01
71801;HTU21D;59647;55.838;37.292;2023-03-31T18:40:52;4.17;90.36